sensor_id;sensor_type;location;lat;lon;timestamp;pressure;altitude;pressure_sealevel;temperature;humidity
11395;BME280;5753;54.402;10.220;2023-11-19T00:00:17;100968.25;;;13.53;56.26
11395;BME280;5753;54.402;10.220;2023-11-19T00:02:43;100953.91;;;14.33;53.89
11395;BME280;5753;54.402;10.220;2023-11-19T00:05:10;100948.41;;;13.57;55.39
11395;BME280;5753;54.402;10.220;2023-11-19T00:07:37;100950.41;;;14.19;54.34
11395;BME280;5753;54.402;10.220;2023-11-19T00:10:14;100943.47;;;14.15;54.79
11395;BME280;5753;54.402;10.220;2023-11-19T00:12:43;100944.25;;;13.85;55.04
11395;BME280;5753;54.402;10.220;2023-11-19T00:15:10;100933.06;;;14.09;54.83
11395;BME280;5753;54.402;10.220;2023-11-19T00:17:41;100932.97;;;13.74;55.74
11395;BME280;5753;54.402;10.220;2023-11-19T00:20:17;100920.19;;;14.21;55.44
11395;BME280;5753;54.402;10.220;2023-11-19T00:22:44;100906.69;;;13.11;56.95
11395;BME280;5753;54.402;10.220;2023-11-19T00:25:12;100907.22;;;14.36;54.72
11395;BME280;5753;54.402;10.220;2023-11-19T00:27:38;100901.09;;;14.01;55.29
11395;BME280;5753;54.402;10.220;2023-11-19T00:30:05;100883.78;;;13.91;55.24
11395;BME280;5753;54.402;10.220;2023-11-19T00:32:32;100886.34;;;13.75;55.98
11395;BME280;5753;54.402;10.220;2023-11-19T00:34:59;100882.78;;;13.49;56.55
11395;BME280;5753;54.402;10.220;2023-11-19T00:37:25;100857.97;;;14.27;55.01
11395;BME280;5753;54.402;10.220;2023-11-19T00:39:51;100856.25;;;14.46;53.86
11395;BME280;5753;54.402;10.220;2023-11-19T00:42:18;100843.88;;;13.32;57.82
11395;BME280;5753;54.402;10.220;2023-11-19T00:44:44;100845.00;;;14.27;54.60
11395;BME280;5753;54.402;10.220;2023-11-19T00:47:11;100827.69;;;14.08;55.06
11395;BME280;5753;54.402;10.220;2023-11-19T00:49:37;100825.13;;;14.23;55.65
11395;BME280;5753;54.402;10.220;2023-11-19T00:52:03;100811.19;;;13.69;56.76
11395;BME280;5753;54.402;10.220;2023-11-19T00:54:29;100819.03;;;13.95;55.63
11395;BME280;5753;54.402;10.220;2023-11-19T00:56:56;100813.84;;;13.97;55.32
11395;BME280;5753;54.402;10.220;2023-11-19T00:59:22;100805.94;;;12.16;59.85
11395;BME280;5753;54.402;10.220;2023-11-19T01:01:48;100809.38;;;13.42;57.78
11395;BME280;5753;54.402;10.220;2023-11-19T01:04:15;100800.00;;;13.73;57.50
11395;BME280;5753;54.402;10.220;2023-11-19T01:06:41;100791.38;;;13.90;57.10
11395;BME280;5753;54.402;10.220;2023-11-19T01:09:08;100780.97;;;13.68;56.44
11395;BME280;5753;54.402;10.220;2023-11-19T01:11:35;100758.56;;;14.07;55.80
11395;BME280;5753;54.402;10.220;2023-11-19T01:14:01;100749.91;;;14.11;56.09
11395;BME280;5753;54.402;10.220;2023-11-19T01:16:27;100754.19;;;13.68;56.46
11395;BME280;5753;54.402;10.220;2023-11-19T01:18:54;100746.47;;;14.03;55.53
11395;BME280;5753;54.402;10.220;2023-11-19T01:21:20;100740.38;;;14.75;53.43
11395;BME280;5753;54.402;10.220;2023-11-19T01:23:47;100740.38;;;13.69;57.92
11395;BME280;5753;54.402;10.220;2023-11-19T01:26:14;100725.72;;;14.36;55.94
11395;BME280;5753;54.402;10.220;2023-11-19T01:28:40;100718.84;;;13.99;55.66
11395;BME280;5753;54.402;10.220;2023-11-19T01:31:11;100717.75;;;13.10;57.93
11395;BME280;5753;54.402;10.220;2023-11-19T01:33:37;100703.13;;;13.15;58.31
11395;BME280;5753;54.402;10.220;2023-11-19T01:36:03;100689.47;;;13.84;56.22
11395;BME280;5753;54.402;10.220;2023-11-19T01:38:30;100684.25;;;14.27;54.43
11395;BME280;5753;54.402;10.220;2023-11-19T01:41:00;100670.34;;;13.15;58.23
11395;BME280;5753;54.402;10.220;2023-11-19T01:43:47;100654.03;;;13.39;57.84
11395;BME280;5753;54.402;10.220;2023-11-19T01:46:13;100650.59;;;14.03;55.13
11395;BME280;5753;54.402;10.220;2023-11-19T01:48:43;100644.56;;;13.40;57.61
11395;BME280;5753;54.402;10.220;2023-11-19T01:51:10;100647.94;;;14.33;55.61
11395;BME280;5753;54.402;10.220;2023-11-19T01:53:38;100638.50;;;13.65;58.00
11395;BME280;5753;54.402;10.220;2023-11-19T01:56:08;100631.63;;;13.81;56.63
11395;BME280;5753;54.402;10.220;2023-11-19T01:58:39;100622.03;;;14.30;55.31
11395;BME280;5753;54.402;10.220;2023-11-19T02:01:06;100626.38;;;14.16;55.59
11395;BME280;5753;54.402;10.220;2023-11-19T02:03:34;100628.00;;;14.60;55.34
11395;BME280;5753;54.402;10.220;2023-11-19T02:06:00;100629.03;;;13.84;56.76
11395;BME280;5753;54.402;10.220;2023-11-19T02:08:27;100633.22;;;14.51;55.50
11395;BME280;5753;54.402;10.220;2023-11-19T02:10:53;100629.88;;;13.48;57.06
11395;BME280;5753;54.402;10.220;2023-11-19T02:13:26;100649.72;;;14.19;56.53
11395;BME280;5753;54.402;10.220;2023-11-19T02:15:52;100645.97;;;15.02;53.14
11395;BME280;5753;54.402;10.220;2023-11-19T02:18:23;100624.63;;;14.32;54.72
11395;BME280;5753;54.402;10.220;2023-11-19T02:20:50;100618.41;;;14.82;53.58
11395;BME280;5753;54.402;10.220;2023-11-19T02:23:17;100616.88;;;14.15;56.31
11395;BME280;5753;54.402;10.220;2023-11-19T02:26:00;100594.47;;;13.70;56.67
11395;BME280;5753;54.402;10.220;2023-11-19T02:28:28;100610.84;;;14.10;56.68
11395;BME280;5753;54.402;10.220;2023-11-19T02:30:54;100596.88;;;14.67;54.72
11395;BME280;5753;54.402;10.220;2023-11-19T02:33:20;100599.56;;;14.17;56.71
11395;BME280;5753;54.402;10.220;2023-11-19T02:35:46;100578.84;;;14.22;56.48
11395;BME280;5753;54.402;10.220;2023-11-19T02:38:12;100570.16;;;14.32;56.52
11395;BME280;5753;54.402;10.220;2023-11-19T02:40:39;100554.66;;;14.12;56.54
11395;BME280;5753;54.402;10.220;2023-11-19T02:43:06;100534.69;;;14.49;55.25
11395;BME280;5753;54.402;10.220;2023-11-19T02:45:32;100536.44;;;14.45;55.33
11395;BME280;5753;54.402;10.220;2023-11-19T02:47:58;100517.66;;;13.73;57.79
11395;BME280;5753;54.402;10.220;2023-11-19T02:50:27;100496.91;;;13.81;56.38
11395;BME280;5753;54.402;10.220;2023-11-19T02:52:55;100473.56;;;13.92;57.69
11395;BME280;5753;54.402;10.220;2023-11-19T02:55:24;100456.44;;;12.84;60.97
11395;BME280;5753;54.402;10.220;2023-11-19T02:57:51;100463.22;;;13.85;57.06
11395;BME280;5753;54.402;10.220;2023-11-19T03:00:20;100465.78;;;13.92;57.16
11395;BME280;5753;54.402;10.220;2023-11-19T03:03:06;100453.81;;;13.46;58.37
11395;BME280;5753;54.402;10.220;2023-11-19T03:05:44;100419.00;;;14.22;57.15
11395;BME280;5753;54.402;10.220;2023-11-19T03:08:10;100433.31;;;14.81;55.42
11395;BME280;5753;54.402;10.220;2023-11-19T03:10:36;100442.94;;;14.68;55.64
11395;BME280;5753;54.402;10.220;2023-11-19T03:13:03;100443.28;;;14.00;57.45
11395;BME280;5753;54.402;10.220;2023-11-19T03:15:29;100432.25;;;13.44;58.59
11395;BME280;5753;54.402;10.220;2023-11-19T03:17:55;100419.25;;;13.58;58.24
11395;BME280;5753;54.402;10.220;2023-11-19T03:20:22;100434.00;;;12.74;61.10
11395;BME280;5753;54.402;10.220;2023-11-19T03:22:49;100440.00;;;13.49;59.99
11395;BME280;5753;54.402;10.220;2023-11-19T03:25:17;100441.50;;;14.09;58.03
11395;BME280;5753;54.402;10.220;2023-11-19T03:27:43;100428.38;;;14.47;56.82
11395;BME280;5753;54.402;10.220;2023-11-19T03:30:10;100429.28;;;14.36;57.19
11395;BME280;5753;54.402;10.220;2023-11-19T03:32:37;100397.56;;;13.90;57.31
11395;BME280;5753;54.402;10.220;2023-11-19T03:35:05;100393.44;;;14.91;54.95
11395;BME280;5753;54.402;10.220;2023-11-19T03:37:33;100381.91;;;14.08;57.27
11395;BME280;5753;54.402;10.220;2023-11-19T03:39:59;100383.53;;;14.30;56.75
11395;BME280;5753;54.402;10.220;2023-11-19T03:42:26;100378.81;;;13.33;60.05
11395;BME280;5753;54.402;10.220;2023-11-19T03:44:53;100387.03;;;14.23;57.21
11395;BME280;5753;54.402;10.220;2023-11-19T03:47:20;100378.44;;;14.09;57.61
11395;BME280;5753;54.402;10.220;2023-11-19T03:49:50;100379.50;;;13.71;59.67
11395;BME280;5753;54.402;10.220;2023-11-19T03:52:19;100363.97;;;13.71;57.91
11395;BME280;5753;54.402;10.220;2023-11-19T03:54:46;100370.03;;;13.66;59.70
11395;BME280;5753;54.402;10.220;2023-11-19T03:57:13;100367.00;;;14.48;58.23
11395;BME280;5753;54.402;10.220;2023-11-19T03:59:39;100364.91;;;13.52;60.83
11395;BME280;5753;54.402;10.220;2023-11-19T04:02:06;100355.34;;;13.72;59.22
11395;BME280;5753;54.402;10.220;2023-11-19T04:04:32;100343.69;;;14.45;57.24
11395;BME280;5753;54.402;10.220;2023-11-19T04:06:59;100326.38;;;14.45;56.63
11395;BME280;5753;54.402;10.220;2023-11-19T04:09:26;100326.81;;;13.78;58.76
11395;BME280;5753;54.402;10.220;2023-11-19T04:11:52;100333.78;;;13.64;60.77
11395;BME280;5753;54.402;10.220;2023-11-19T04:14:18;100294.75;;;13.96;58.57
11395;BME280;5753;54.402;10.220;2023-11-19T04:16:45;100306.16;;;13.63;59.96
11395;BME280;5753;54.402;10.220;2023-11-19T04:19:11;100317.56;;;13.29;61.10
11395;BME280;5753;54.402;10.220;2023-11-19T04:21:40;100306.34;;;13.23;59.60
11395;BME280;5753;54.402;10.220;2023-11-19T04:24:10;100293.97;;;13.83;60.04
11395;BME280;5753;54.402;10.220;2023-11-19T04:26:46;100295.22;;;12.82;63.49
11395;BME280;5753;54.402;10.220;2023-11-19T04:29:16;100292.59;;;13.02;63.47
11395;BME280;5753;54.402;10.220;2023-11-19T04:31:43;100290.59;;;13.75;59.99
11395;BME280;5753;54.402;10.220;2023-11-19T04:34:10;100284.47;;;13.84;60.41
11395;BME280;5753;54.402;10.220;2023-11-19T04:36:37;100264.06;;;13.15;61.72
11395;BME280;5753;54.402;10.220;2023-11-19T04:39:04;100265.78;;;13.30;61.88
11395;BME280;5753;54.402;10.220;2023-11-19T04:41:50;100259.56;;;13.60;61.46
11395;BME280;5753;54.402;10.220;2023-11-19T04:44:19;100262.81;;;13.96;60.11
11395;BME280;5753;54.402;10.220;2023-11-19T04:46:45;100259.31;;;14.01;60.43
11395;BME280;5753;54.402;10.220;2023-11-19T04:49:12;100252.66;;;13.62;60.38
11395;BME280;5753;54.402;10.220;2023-11-19T04:51:40;100247.06;;;14.17;60.19
11395;BME280;5753;54.402;10.220;2023-11-19T04:54:07;100242.84;;;14.08;58.78
11395;BME280;5753;54.402;10.220;2023-11-19T04:56:35;100230.19;;;13.72;59.95
11395;BME280;5753;54.402;10.220;2023-11-19T04:59:02;100231.28;;;13.20;61.51
11395;BME280;5753;54.402;10.220;2023-11-19T05:01:28;100220.31;;;14.16;59.17
11395;BME280;5753;54.402;10.220;2023-11-19T05:03:55;100214.66;;;13.64;61.88
11395;BME280;5753;54.402;10.220;2023-11-19T05:06:23;100200.00;;;13.62;61.01
11395;BME280;5753;54.402;10.220;2023-11-19T05:08:49;100196.81;;;13.20;63.11
11395;BME280;5753;54.402;10.220;2023-11-19T05:11:15;100200.63;;;13.96;59.73
11395;BME280;5753;54.402;10.220;2023-11-19T05:13:45;100197.00;;;14.15;59.77
11395;BME280;5753;54.402;10.220;2023-11-19T05:16:11;100204.34;;;14.62;57.84
11395;BME280;5753;54.402;10.220;2023-11-19T05:18:40;100215.53;;;14.69;57.40
11395;BME280;5753;54.402;10.220;2023-11-19T05:21:06;100208.03;;;15.17;56.52
11395;BME280;5753;54.402;10.220;2023-11-19T05:23:33;100200.19;;;14.47;56.86
11395;BME280;5753;54.402;10.220;2023-11-19T05:26:03;100193.91;;;13.70;59.56
11395;BME280;5753;54.402;10.220;2023-11-19T05:28:29;100196.06;;;15.03;56.94
11395;BME280;5753;54.402;10.220;2023-11-19T05:30:55;100189.84;;;14.43;58.63
11395;BME280;5753;54.402;10.220;2023-11-19T05:33:21;100195.56;;;15.41;54.74
11395;BME280;5753;54.402;10.220;2023-11-19T05:35:48;100193.88;;;15.39;55.19
11395;BME280;5753;54.402;10.220;2023-11-19T05:38:14;100199.16;;;14.61;57.07
11395;BME280;5753;54.402;10.220;2023-11-19T05:40:42;100195.59;;;15.40;55.81
11395;BME280;5753;54.402;10.220;2023-11-19T05:43:08;100195.94;;;16.29;53.79
11395;BME280;5753;54.402;10.220;2023-11-19T05:45:34;100185.63;;;16.23;53.14
11395;BME280;5753;54.402;10.220;2023-11-19T05:48:00;100189.94;;;15.73;54.60
11395;BME280;5753;54.402;10.220;2023-11-19T05:50:26;100186.59;;;15.65;55.70
11395;BME280;5753;54.402;10.220;2023-11-19T05:52:52;100184.59;;;15.21;56.78
11395;BME280;5753;54.402;10.220;2023-11-19T05:55:19;100184.78;;;16.23;54.39
11395;BME280;5753;54.402;10.220;2023-11-19T05:57:45;100166.38;;;15.26;56.43
11395;BME280;5753;54.402;10.220;2023-11-19T06:00:12;100171.34;;;14.75;59.45
11395;BME280;5753;54.402;10.220;2023-11-19T06:02:39;100169.97;;;16.26;54.93
11395;BME280;5753;54.402;10.220;2023-11-19T06:05:06;100174.53;;;15.61;57.15
11395;BME280;5753;54.402;10.220;2023-11-19T06:07:35;100179.50;;;15.77;56.37
11395;BME280;5753;54.402;10.220;2023-11-19T06:10:03;100181.81;;;16.43;54.81
11395;BME280;5753;54.402;10.220;2023-11-19T06:12:31;100170.78;;;14.48;59.51
11395;BME280;5753;54.402;10.220;2023-11-19T06:14:57;100169.81;;;15.28;57.90
11395;BME280;5753;54.402;10.220;2023-11-19T06:17:23;100163.91;;;16.26;56.01
11395;BME280;5753;54.402;10.220;2023-11-19T06:19:49;100166.09;;;15.44;58.35
11395;BME280;5753;54.402;10.220;2023-11-19T06:22:16;100155.56;;;16.09;56.77
11395;BME280;5753;54.402;10.220;2023-11-19T06:24:42;100163.19;;;16.18;55.55
11395;BME280;5753;54.402;10.220;2023-11-19T06:27:08;100162.53;;;15.51;58.18
11395;BME280;5753;54.402;10.220;2023-11-19T06:29:35;100166.38;;;16.33;56.23
11395;BME280;5753;54.402;10.220;2023-11-19T06:32:02;100156.31;;;16.15;55.35
11395;BME280;5753;54.402;10.220;2023-11-19T06:34:28;100162.31;;;16.65;54.69
11395;BME280;5753;54.402;10.220;2023-11-19T06:36:54;100166.50;;;16.74;53.76
11395;BME280;5753;54.402;10.220;2023-11-19T06:39:20;100166.59;;;16.21;55.68
11395;BME280;5753;54.402;10.220;2023-11-19T06:41:47;100163.94;;;16.72;54.16
11395;BME280;5753;54.402;10.220;2023-11-19T06:44:13;100162.50;;;16.54;54.53
11395;BME280;5753;54.402;10.220;2023-11-19T06:46:39;100162.69;;;17.30;52.79
11395;BME280;5753;54.402;10.220;2023-11-19T06:49:06;100164.75;;;17.16;53.24
11395;BME280;5753;54.402;10.220;2023-11-19T06:51:34;100171.41;;;17.29;52.60
11395;BME280;5753;54.402;10.220;2023-11-19T06:54:00;100172.03;;;16.98;53.89
11395;BME280;5753;54.402;10.220;2023-11-19T06:56:27;100161.84;;;16.89;53.75
11395;BME280;5753;54.402;10.220;2023-11-19T06:58:53;100164.75;;;17.16;52.86
11395;BME280;5753;54.402;10.220;2023-11-19T07:01:19;100159.41;;;17.22;53.04
11395;BME280;5753;54.402;10.220;2023-11-19T07:03:49;100153.19;;;17.27;53.41
11395;BME280;5753;54.402;10.220;2023-11-19T07:06:15;100152.06;;;16.11;57.52
11395;BME280;5753;54.402;10.220;2023-11-19T07:08:44;100157.72;;;16.79;55.43
11395;BME280;5753;54.402;10.220;2023-11-19T07:11:11;100152.16;;;17.35;54.22
11395;BME280;5753;54.402;10.220;2023-11-19T07:13:37;100157.44;;;16.91;54.82
11395;BME280;5753;54.402;10.220;2023-11-19T07:16:04;100144.31;;;17.36;53.01
11395;BME280;5753;54.402;10.220;2023-11-19T07:18:30;100150.69;;;17.97;52.17
11395;BME280;5753;54.402;10.220;2023-11-19T07:20:57;100144.06;;;17.47;53.72
11395;BME280;5753;54.402;10.220;2023-11-19T07:23:23;100144.66;;;17.59;53.44
11395;BME280;5753;54.402;10.220;2023-11-19T07:25:49;100148.28;;;17.52;53.50
11395;BME280;5753;54.402;10.220;2023-11-19T07:28:17;100139.88;;;18.12;52.50
11395;BME280;5753;54.402;10.220;2023-11-19T07:30:44;100136.50;;;18.40;51.33
11395;BME280;5753;54.402;10.220;2023-11-19T07:33:10;100136.69;;;17.66;53.97
11395;BME280;5753;54.402;10.220;2023-11-19T07:35:36;100140.19;;;17.65;53.79
11395;BME280;5753;54.402;10.220;2023-11-19T07:38:02;100138.72;;;17.53;53.79
11395;BME280;5753;54.402;10.220;2023-11-19T07:40:28;100137.22;;;17.43;55.06
11395;BME280;5753;54.402;10.220;2023-11-19T07:42:54;100138.84;;;17.84;53.84
11395;BME280;5753;54.402;10.220;2023-11-19T07:45:21;100123.63;;;18.03;54.68
11395;BME280;5753;54.402;10.220;2023-11-19T07:47:47;100134.19;;;18.29;53.91
11395;BME280;5753;54.402;10.220;2023-11-19T07:50:13;100134.56;;;18.48;53.61
11395;BME280;5753;54.402;10.220;2023-11-19T07:52:42;100132.31;;;18.67;53.45
11395;BME280;5753;54.402;10.220;2023-11-19T07:55:08;100135.63;;;19.03;52.35
11395;BME280;5753;54.402;10.220;2023-11-19T07:57:34;100142.03;;;18.60;53.90
11395;BME280;5753;54.402;10.220;2023-11-19T08:00:01;100142.44;;;19.07;53.08
11395;BME280;5753;54.402;10.220;2023-11-19T08:02:27;100147.25;;;18.93;54.28
11395;BME280;5753;54.402;10.220;2023-11-19T08:04:54;100143.97;;;19.14;54.77
11395;BME280;5753;54.402;10.220;2023-11-19T08:07:21;100132.50;;;18.59;57.10
11395;BME280;5753;54.402;10.220;2023-11-19T08:09:48;100142.88;;;18.30;57.84
11395;BME280;5753;54.402;10.220;2023-11-19T08:12:14;100138.38;;;18.67;58.16
11395;BME280;5753;54.402;10.220;2023-11-19T08:14:42;100129.63;;;18.37;58.95
11395;BME280;5753;54.402;10.220;2023-11-19T08:17:08;100140.09;;;18.36;59.43
11395;BME280;5753;54.402;10.220;2023-11-19T08:19:34;100135.25;;;18.85;58.26
11395;BME280;5753;54.402;10.220;2023-11-19T08:22:00;100128.00;;;18.33;60.65
11395;BME280;5753;54.402;10.220;2023-11-19T08:24:26;100137.44;;;18.70;59.79
11395;BME280;5753;54.402;10.220;2023-11-19T08:26:52;100139.91;;;18.74;59.61
11395;BME280;5753;54.402;10.220;2023-11-19T08:29:19;100139.03;;;19.05;58.42
11395;BME280;5753;54.402;10.220;2023-11-19T08:31:45;100139.38;;;18.94;58.26
11395;BME280;5753;54.402;10.220;2023-11-19T08:34:12;100133.72;;;18.47;61.34
11395;BME280;5753;54.402;10.220;2023-11-19T08:36:38;100133.72;;;19.08;59.24
11395;BME280;5753;54.402;10.220;2023-11-19T08:39:04;100126.78;;;19.07;60.00
11395;BME280;5753;54.402;10.220;2023-11-19T08:41:30;100131.44;;;19.25;59.50
11395;BME280;5753;54.402;10.220;2023-11-19T08:43:56;100131.25;;;19.59;58.70
11395;BME280;5753;54.402;10.220;2023-11-19T08:46:22;100132.50;;;19.74;58.45
11395;BME280;5753;54.402;10.220;2023-11-19T08:48:48;100134.63;;;19.89;58.15
11395;BME280;5753;54.402;10.220;2023-11-19T08:51:14;100137.56;;;19.24;60.59
11395;BME280;5753;54.402;10.220;2023-11-19T08:53:40;100133.13;;;19.26;62.21
11395;BME280;5753;54.402;10.220;2023-11-19T08:56:07;100140.28;;;19.21;62.68
11395;BME280;5753;54.402;10.220;2023-11-19T08:58:33;100143.53;;;19.28;62.01
11395;BME280;5753;54.402;10.220;2023-11-19T09:00:59;100141.22;;;19.18;62.22
11395;BME280;5753;54.402;10.220;2023-11-19T09:03:26;100142.03;;;18.60;66.64
11395;BME280;5753;54.402;10.220;2023-11-19T09:05:52;100150.09;;;18.83;65.18
11395;BME280;5753;54.402;10.220;2023-11-19T09:08:19;100143.94;;;19.15;64.12
11395;BME280;5753;54.402;10.220;2023-11-19T09:10:45;100156.09;;;19.44;63.62
11395;BME280;5753;54.402;10.220;2023-11-19T09:13:11;100148.53;;;19.91;61.43
11395;BME280;5753;54.402;10.220;2023-11-19T09:15:37;100154.34;;;19.17;64.20
11395;BME280;5753;54.402;10.220;2023-11-19T09:18:03;100154.81;;;19.02;65.14
11395;BME280;5753;54.402;10.220;2023-11-19T09:20:30;100153.94;;;19.29;63.92
11395;BME280;5753;54.402;10.220;2023-11-19T09:23:04;100156.94;;;18.87;65.41
11395;BME280;5753;54.402;10.220;2023-11-19T09:25:31;100166.09;;;19.60;63.29
11395;BME280;5753;54.402;10.220;2023-11-19T09:27:57;100171.69;;;18.88;64.58
11395;BME280;5753;54.402;10.220;2023-11-19T09:30:23;100168.19;;;19.19;64.59
11395;BME280;5753;54.402;10.220;2023-11-19T09:32:49;100175.84;;;19.25;63.36
11395;BME280;5753;54.402;10.220;2023-11-19T09:35:15;100169.16;;;19.72;62.63
11395;BME280;5753;54.402;10.220;2023-11-19T09:37:43;100160.81;;;19.61;62.63
11395;BME280;5753;54.402;10.220;2023-11-19T09:40:09;100160.97;;;19.83;62.66
11395;BME280;5753;54.402;10.220;2023-11-19T09:42:45;100166.41;;;19.49;63.83
11395;BME280;5753;54.402;10.220;2023-11-19T09:45:15;100177.91;;;19.43;63.34
11395;BME280;5753;54.402;10.220;2023-11-19T09:47:46;100179.16;;;19.60;63.74
11395;BME280;5753;54.402;10.220;2023-11-19T09:50:17;100179.56;;;19.74;63.04
11395;BME280;5753;54.402;10.220;2023-11-19T09:52:45;100176.81;;;20.05;62.45
11395;BME280;5753;54.402;10.220;2023-11-19T09:55:11;100165.06;;;20.17;61.44
11395;BME280;5753;54.402;10.220;2023-11-19T09:57:39;100172.03;;;20.67;59.93
11395;BME280;5753;54.402;10.220;2023-11-19T10:00:07;100171.84;;;20.49;59.67
11395;BME280;5753;54.402;10.220;2023-11-19T10:02:34;100182.16;;;20.77;59.32
11395;BME280;5753;54.402;10.220;2023-11-19T10:05:07;100175.41;;;20.94;58.22
11395;BME280;5753;54.402;10.220;2023-11-19T10:07:34;100186.81;;;20.45;59.14
11395;BME280;5753;54.402;10.220;2023-11-19T10:10:01;100181.16;;;20.06;61.07
11395;BME280;5753;54.402;10.220;2023-11-19T10:12:30;100180.25;;;20.32;60.30
11395;BME280;5753;54.402;10.220;2023-11-19T10:14:57;100173.22;;;20.59;59.64
11395;BME280;5753;54.402;10.220;2023-11-19T10:17:34;100181.81;;;20.62;58.58
11395;BME280;5753;54.402;10.220;2023-11-19T10:20:01;100177.72;;;20.79;58.39
11395;BME280;5753;54.402;10.220;2023-11-19T10:24:15;100181.06;;;17.24;75.40
11395;BME280;5753;54.402;10.220;2023-11-19T10:26:41;100184.22;;;17.38;74.44
11395;BME280;5753;54.402;10.220;2023-11-19T10:29:08;100190.22;;;17.42;74.84
11395;BME280;5753;54.402;10.220;2023-11-19T10:31:34;100189.16;;;17.49;75.40
11395;BME280;5753;54.402;10.220;2023-11-19T10:34:00;100192.00;;;17.78;74.93
11395;BME280;5753;54.402;10.220;2023-11-19T10:36:38;100190.47;;;18.05;73.71
11395;BME280;5753;54.402;10.220;2023-11-19T10:39:08;100188.53;;;17.78;73.32
11395;BME280;5753;54.402;10.220;2023-11-19T10:41:35;100203.41;;;17.34;76.26
11395;BME280;5753;54.402;10.220;2023-11-19T10:44:01;100191.41;;;17.66;74.98
11395;BME280;5753;54.402;10.220;2023-11-19T10:46:41;100205.06;;;16.96;79.26
11395;BME280;5753;54.402;10.220;2023-11-19T10:49:07;100207.34;;;16.70;81.63
11395;BME280;5753;54.402;10.220;2023-11-19T10:51:34;100194.34;;;17.89;76.94
11395;BME280;5753;54.402;10.220;2023-11-19T10:54:05;100198.19;;;17.74;76.90
11395;BME280;5753;54.402;10.220;2023-11-19T10:56:32;100192.75;;;17.45;76.69
11395;BME280;5753;54.402;10.220;2023-11-19T10:59:00;100189.47;;;17.75;75.53
11395;BME280;5753;54.402;10.220;2023-11-19T11:01:35;100196.22;;;17.84;75.31
11395;BME280;5753;54.402;10.220;2023-11-19T11:04:13;100203.75;;;17.57;76.50
11395;BME280;5753;54.402;10.220;2023-11-19T11:06:40;100197.19;;;17.80;74.90
11395;BME280;5753;54.402;10.220;2023-11-19T11:09:08;100196.00;;;17.91;76.73
11395;BME280;5753;54.402;10.220;2023-11-19T11:11:39;100189.56;;;19.04;69.55
11395;BME280;5753;54.402;10.220;2023-11-19T11:14:06;100203.16;;;17.45;75.99
11395;BME280;5753;54.402;10.220;2023-11-19T11:16:34;100199.25;;;17.64;77.46
11395;BME280;5753;54.402;10.220;2023-11-19T11:19:03;100200.25;;;17.58;76.45
11395;BME280;5753;54.402;10.220;2023-11-19T11:21:30;100200.44;;;18.23;71.76
11395;BME280;5753;54.402;10.220;2023-11-19T11:26:57;100198.28;;;17.70;77.51
11395;BME280;5753;54.402;10.220;2023-11-19T11:30:10;100195.91;;;18.64;71.63
11395;BME280;5753;54.402;10.220;2023-11-19T11:38:14;100201.00;;;18.02;74.43
11395;BME280;5753;54.402;10.220;2023-11-19T11:40:41;100203.13;;;17.85;75.70
11395;BME280;5753;54.402;10.220;2023-11-19T11:43:43;100209.25;;;17.44;77.35
11395;BME280;5753;54.402;10.220;2023-11-19T11:46:20;100204.63;;;17.18;79.38
11395;BME280;5753;54.402;10.220;2023-11-19T11:48:57;100200.28;;;17.94;75.70
11395;BME280;5753;54.402;10.220;2023-11-19T12:02:11;100199.06;;;18.75;71.42
11395;BME280;5753;54.402;10.220;2023-11-19T12:04:38;100199.13;;;18.07;72.92
11395;BME280;5753;54.402;10.220;2023-11-19T12:07:15;100201.72;;;17.72;75.19
11395;BME280;5753;54.402;10.220;2023-11-19T12:09:42;100206.47;;;17.53;75.60
11395;BME280;5753;54.402;10.220;2023-11-19T12:15:03;100212.66;;;18.21;74.98
11395;BME280;5753;54.402;10.220;2023-11-19T12:20:19;100218.34;;;18.03;75.27
11395;BME280;5753;54.402;10.220;2023-11-19T12:22:47;100219.31;;;17.99;75.52
11395;BME280;5753;54.402;10.220;2023-11-19T12:25:15;100206.84;;;18.77;70.54
11395;BME280;5753;54.402;10.220;2023-11-19T12:27:47;100209.25;;;18.19;73.71
11395;BME280;5753;54.402;10.220;2023-11-19T12:30:22;100211.41;;;18.36;73.18
11395;BME280;5753;54.402;10.220;2023-11-19T12:32:49;100206.75;;;18.49;72.56
11395;BME280;5753;54.402;10.220;2023-11-19T12:35:15;100219.19;;;17.28;77.83
11395;BME280;5753;54.402;10.220;2023-11-19T12:37:49;100217.75;;;17.53;76.09
11395;BME280;5753;54.402;10.220;2023-11-19T12:40:17;100207.41;;;17.50;76.61
11395;BME280;5753;54.402;10.220;2023-11-19T12:42:48;100213.91;;;17.71;75.03
11395;BME280;5753;54.402;10.220;2023-11-19T12:45:15;100217.44;;;17.69;76.75
11395;BME280;5753;54.402;10.220;2023-11-19T12:47:43;100212.44;;;17.95;74.13
11395;BME280;5753;54.402;10.220;2023-11-19T12:50:10;100218.59;;;17.92;73.57
11395;BME280;5753;54.402;10.220;2023-11-19T12:52:36;100218.41;;;17.63;76.16
11395;BME280;5753;54.402;10.220;2023-11-19T12:57:50;100217.25;;;17.76;77.19
11395;BME280;5753;54.402;10.220;2023-11-19T13:00:21;100205.56;;;18.27;74.40
11395;BME280;5753;54.402;10.220;2023-11-19T13:02:48;100211.47;;;18.01;73.72
11395;BME280;5753;54.402;10.220;2023-11-19T13:05:31;100209.13;;;18.56;72.92
11395;BME280;5753;54.402;10.220;2023-11-19T13:08:03;100206.03;;;17.33;77.53
11395;BME280;5753;54.402;10.220;2023-11-19T13:10:31;100199.97;;;17.32;79.03
11395;BME280;5753;54.402;10.220;2023-11-19T13:13:02;100212.69;;;17.84;75.26
11395;BME280;5753;54.402;10.220;2023-11-19T13:15:29;100207.03;;;17.66;77.21
11395;BME280;5753;54.402;10.220;2023-11-19T13:17:55;100211.16;;;17.37;77.45
11395;BME280;5753;54.402;10.220;2023-11-19T13:20:21;100206.09;;;17.31;78.51
11395;BME280;5753;54.402;10.220;2023-11-19T13:23:14;100210.94;;;17.46;78.03